sensor_id;sensor_type;location;lat;lon;timestamp;P1;durP1;ratioP1;P2;durP2;ratioP2
18072;SDS011;9161;47.348;9.648;2022-11-20T00:00:49;7.50;;;2.60;;
18072;SDS011;9161;47.348;9.648;2022-11-20T00:05:33;3.43;;;1.63;;
18072;SDS011;9161;47.348;9.648;2022-11-20T00:10:16;3.17;;;1.50;;
18072;SDS011;9161;47.348;9.648;2022-11-20T00:15:01;3.23;;;1.47;;
18072;SDS011;9161;47.348;9.648;2022-11-20T00:19:45;3.80;;;1.50;;
18072;SDS011;9161;47.348;9.648;2022-11-20T00:24:28;2.90;;;1.60;;
18072;SDS011;9161;47.348;9.648;2022-11-20T00:29:12;6.10;;;1.73;;
18072;SDS011;9161;47.348;9.648;2022-11-20T00:33:57;3.33;;;1.87;;
18072;SDS011;9161;47.348;9.648;2022-11-20T00:38:40;3.93;;;1.70;;
18072;SDS011;9161;47.348;9.648;2022-11-20T00:43:24;2.67;;;1.70;;
18072;SDS011;9161;47.348;9.648;2022-11-20T00:48:08;6.83;;;3.00;;
18072;SDS011;9161;47.348;9.648;2022-11-20T00:52:53;7.93;;;3.53;;
18072;SDS011;9161;47.348;9.648;2022-11-20T00:57:36;8.17;;;4.10;;
18072;SDS011;9161;47.348;9.648;2022-11-20T01:02:20;8.70;;;3.90;;
18072;SDS011;9161;47.348;9.648;2022-11-20T01:07:03;10.07;;;4.00;;
18072;SDS011;9161;47.348;9.648;2022-11-20T01:11:49;8.33;;;3.80;;
18072;SDS011;9161;47.348;9.648;2022-11-20T01:16:33;6.93;;;3.70;;
18072;SDS011;9161;47.348;9.648;2022-11-20T01:21:18;4.50;;;2.97;;
18072;SDS011;9161;47.348;9.648;2022-11-20T01:26:03;6.10;;;3.47;;
18072;SDS011;9161;47.348;9.648;2022-11-20T01:30:49;5.33;;;2.90;;
18072;SDS011;9161;47.348;9.648;2022-11-20T01:35:33;5.23;;;3.13;;
18072;SDS011;9161;47.348;9.648;2022-11-20T01:40:16;7.13;;;4.43;;
18072;SDS011;9161;47.348;9.648;2022-11-20T01:45:00;9.13;;;4.57;;
18072;SDS011;9161;47.348;9.648;2022-11-20T01:49:46;7.90;;;3.97;;
18072;SDS011;9161;47.348;9.648;2022-11-20T01:54:34;8.13;;;4.27;;
18072;SDS011;9161;47.348;9.648;2022-11-20T01:59:21;8.37;;;3.90;;
18072;SDS011;9161;47.348;9.648;2022-11-20T02:04:07;8.17;;;4.33;;
18072;SDS011;9161;47.348;9.648;2022-11-20T02:08:53;5.20;;;3.20;;
18072;SDS011;9161;47.348;9.648;2022-11-20T02:13:38;6.23;;;3.47;;
18072;SDS011;9161;47.348;9.648;2022-11-20T02:18:27;6.80;;;3.90;;
18072;SDS011;9161;47.348;9.648;2022-11-20T02:23:12;7.17;;;4.00;;
18072;SDS011;9161;47.348;9.648;2022-11-20T02:28:04;8.20;;;4.23;;
18072;SDS011;9161;47.348;9.648;2022-11-20T02:32:48;9.20;;;5.40;;
18072;SDS011;9161;47.348;9.648;2022-11-20T02:37:32;11.50;;;4.83;;
18072;SDS011;9161;47.348;9.648;2022-11-20T02:42:18;9.23;;;4.67;;
18072;SDS011;9161;47.348;9.648;2022-11-20T02:47:03;6.53;;;4.40;;
18072;SDS011;9161;47.348;9.648;2022-11-20T02:51:47;10.03;;;4.60;;
18072;SDS011;9161;47.348;9.648;2022-11-20T02:56:30;11.87;;;3.97;;
18072;SDS011;9161;47.348;9.648;2022-11-20T03:01:14;9.83;;;4.20;;
18072;SDS011;9161;47.348;9.648;2022-11-20T03:05:59;7.57;;;3.57;;
18072;SDS011;9161;47.348;9.648;2022-11-20T03:10:43;7.30;;;3.67;;
18072;SDS011;9161;47.348;9.648;2022-11-20T03:15:26;11.83;;;4.60;;
18072;SDS011;9161;47.348;9.648;2022-11-20T03:20:10;9.43;;;4.40;;
18072;SDS011;9161;47.348;9.648;2022-11-20T03:24:55;7.43;;;3.87;;
18072;SDS011;9161;47.348;9.648;2022-11-20T03:29:39;7.77;;;2.90;;
18072;SDS011;9161;47.348;9.648;2022-11-20T03:34:22;5.47;;;2.87;;
18072;SDS011;9161;47.348;9.648;2022-11-20T03:39:06;8.23;;;3.63;;
18072;SDS011;9161;47.348;9.648;2022-11-20T03:43:51;5.23;;;2.80;;
18072;SDS011;9161;47.348;9.648;2022-11-20T03:48:36;4.57;;;3.10;;
18072;SDS011;9161;47.348;9.648;2022-11-20T03:53:19;5.60;;;2.47;;
18072;SDS011;9161;47.348;9.648;2022-11-20T03:58:03;2.57;;;1.80;;
18072;SDS011;9161;47.348;9.648;2022-11-20T04:02:48;2.10;;;1.10;;
18072;SDS011;9161;47.348;9.648;2022-11-20T04:07:33;2.10;;;1.00;;
18072;SDS011;9161;47.348;9.648;2022-11-20T04:12:17;1.43;;;0.90;;
18072;SDS011;9161;47.348;9.648;2022-11-20T04:17:00;1.50;;;0.80;;
18072;SDS011;9161;47.348;9.648;2022-11-20T04:21:45;4.70;;;0.80;;
18072;SDS011;9161;47.348;9.648;2022-11-20T04:26:29;2.23;;;1.00;;
18072;SDS011;9161;47.348;9.648;2022-11-20T04:31:13;1.67;;;0.80;;
18072;SDS011;9161;47.348;9.648;2022-11-20T04:36:00;1.47;;;0.80;;
18072;SDS011;9161;47.348;9.648;2022-11-20T04:40:49;1.53;;;1.00;;
18072;SDS011;9161;47.348;9.648;2022-11-20T04:45:32;2.20;;;0.70;;
18072;SDS011;9161;47.348;9.648;2022-11-20T04:50:16;2.07;;;0.80;;
18072;SDS011;9161;47.348;9.648;2022-11-20T04:54:59;0.60;;;0.53;;
18072;SDS011;9161;47.348;9.648;2022-11-20T04:59:44;1.57;;;0.97;;
18072;SDS011;9161;47.348;9.648;2022-11-20T05:04:28;3.73;;;1.33;;
18072;SDS011;9161;47.348;9.648;2022-11-20T05:09:11;2.33;;;1.30;;
18072;SDS011;9161;47.348;9.648;2022-11-20T05:13:55;3.23;;;0.73;;
18072;SDS011;9161;47.348;9.648;2022-11-20T05:18:42;2.03;;;0.80;;
18072;SDS011;9161;47.348;9.648;2022-11-20T05:23:26;1.47;;;0.93;;
18072;SDS011;9161;47.348;9.648;2022-11-20T05:28:11;1.13;;;0.70;;
18072;SDS011;9161;47.348;9.648;2022-11-20T05:32:55;1.93;;;0.93;;
18072;SDS011;9161;47.348;9.648;2022-11-20T05:37:40;3.57;;;0.73;;
18072;SDS011;9161;47.348;9.648;2022-11-20T05:42:23;1.80;;;0.87;;
18072;SDS011;9161;47.348;9.648;2022-11-20T05:47:13;2.50;;;1.10;;
18072;SDS011;9161;47.348;9.648;2022-11-20T05:51:56;7.77;;;2.87;;
18072;SDS011;9161;47.348;9.648;2022-11-20T05:56:41;13.90;;;6.57;;
18072;SDS011;9161;47.348;9.648;2022-11-20T06:01:25;2.03;;;1.37;;
18072;SDS011;9161;47.348;9.648;2022-11-20T06:06:09;1.43;;;1.13;;
18072;SDS011;9161;47.348;9.648;2022-11-20T06:10:52;1.77;;;0.80;;
18072;SDS011;9161;47.348;9.648;2022-11-20T06:15:37;1.30;;;0.83;;
18072;SDS011;9161;47.348;9.648;2022-11-20T06:20:21;2.40;;;0.90;;
18072;SDS011;9161;47.348;9.648;2022-11-20T06:25:04;3.27;;;1.20;;
18072;SDS011;9161;47.348;9.648;2022-11-20T06:29:48;1.83;;;1.33;;
18072;SDS011;9161;47.348;9.648;2022-11-20T06:34:33;2.10;;;1.20;;
18072;SDS011;9161;47.348;9.648;2022-11-20T06:39:16;2.57;;;0.83;;
18072;SDS011;9161;47.348;9.648;2022-11-20T06:44:01;4.50;;;1.30;;
18072;SDS011;9161;47.348;9.648;2022-11-20T06:48:46;1.77;;;1.10;;
18072;SDS011;9161;47.348;9.648;2022-11-20T06:53:32;4.23;;;1.97;;
18072;SDS011;9161;47.348;9.648;2022-11-20T06:58:16;3.83;;;2.40;;
18072;SDS011;9161;47.348;9.648;2022-11-20T07:03:02;4.50;;;2.20;;
18072;SDS011;9161;47.348;9.648;2022-11-20T07:07:46;16.60;;;5.00;;
18072;SDS011;9161;47.348;9.648;2022-11-20T07:12:30;7.73;;;3.20;;
18072;SDS011;9161;47.348;9.648;2022-11-20T07:17:14;4.60;;;2.80;;
18072;SDS011;9161;47.348;9.648;2022-11-20T07:21:58;7.60;;;2.90;;
18072;SDS011;9161;47.348;9.648;2022-11-20T07:26:41;5.43;;;3.13;;
18072;SDS011;9161;47.348;9.648;2022-11-20T07:31:26;8.33;;;4.77;;
18072;SDS011;9161;47.348;9.648;2022-11-20T07:36:09;8.77;;;3.93;;
18072;SDS011;9161;47.348;9.648;2022-11-20T07:40:53;6.93;;;3.60;;
18072;SDS011;9161;47.348;9.648;2022-11-20T07:45:39;4.03;;;2.77;;
18072;SDS011;9161;47.348;9.648;2022-11-20T07:50:24;6.47;;;3.10;;
18072;SDS011;9161;47.348;9.648;2022-11-20T07:55:08;5.60;;;3.30;;
18072;SDS011;9161;47.348;9.648;2022-11-20T07:59:52;7.07;;;4.10;;
18072;SDS011;9161;47.348;9.648;2022-11-20T08:04:36;7.17;;;4.07;;
18072;SDS011;9161;47.348;9.648;2022-11-20T08:09:21;6.00;;;3.53;;
18072;SDS011;9161;47.348;9.648;2022-11-20T08:14:04;12.30;;;4.07;;
18072;SDS011;9161;47.348;9.648;2022-11-20T08:18:54;6.43;;;3.97;;
18072;SDS011;9161;47.348;9.648;2022-11-20T08:23:39;4.97;;;2.87;;
18072;SDS011;9161;47.348;9.648;2022-11-20T08:28:25;6.77;;;3.10;;
18072;SDS011;9161;47.348;9.648;2022-11-20T08:33:11;4.50;;;2.83;;
18072;SDS011;9161;47.348;9.648;2022-11-20T08:37:55;4.67;;;2.83;;
18072;SDS011;9161;47.348;9.648;2022-11-20T08:42:45;7.30;;;3.47;;
18072;SDS011;9161;47.348;9.648;2022-11-20T08:47:31;5.00;;;3.00;;
18072;SDS011;9161;47.348;9.648;2022-11-20T08:52:14;6.47;;;3.40;;
18072;SDS011;9161;47.348;9.648;2022-11-20T08:56:58;8.10;;;3.53;;
18072;SDS011;9161;47.348;9.648;2022-11-20T09:01:44;4.67;;;2.27;;
18072;SDS011;9161;47.348;9.648;2022-11-20T09:06:29;5.03;;;2.37;;
18072;SDS011;9161;47.348;9.648;2022-11-20T09:11:13;4.23;;;2.50;;
18072;SDS011;9161;47.348;9.648;2022-11-20T09:15:57;7.20;;;3.10;;
18072;SDS011;9161;47.348;9.648;2022-11-20T09:20:41;4.27;;;2.80;;
18072;SDS011;9161;47.348;9.648;2022-11-20T09:25:27;6.03;;;2.87;;
18072;SDS011;9161;47.348;9.648;2022-11-20T09:30:11;3.90;;;2.63;;
18072;SDS011;9161;47.348;9.648;2022-11-20T09:34:55;3.67;;;2.17;;
18072;SDS011;9161;47.348;9.648;2022-11-20T09:39:39;5.63;;;2.57;;
18072;SDS011;9161;47.348;9.648;2022-11-20T09:49:49;4.10;;;2.40;;
18072;SDS011;9161;47.348;9.648;2022-11-20T09:54:43;3.90;;;2.10;;
18072;SDS011;9161;47.348;9.648;2022-11-20T09:59:30;2.43;;;1.90;;
18072;SDS011;9161;47.348;9.648;2022-11-20T10:04:19;4.77;;;2.30;;
18072;SDS011;9161;47.348;9.648;2022-11-20T10:09:11;2.20;;;1.73;;
18072;SDS011;9161;47.348;9.648;2022-11-20T10:14:08;3.83;;;1.57;;
18072;SDS011;9161;47.348;9.648;2022-11-20T10:19:02;4.30;;;1.30;;
18072;SDS011;9161;47.348;9.648;2022-11-20T10:24:11;3.67;;;1.53;;
18072;SDS011;9161;47.348;9.648;2022-11-20T10:29:16;4.33;;;1.70;;
18072;SDS011;9161;47.348;9.648;2022-11-20T10:34:03;3.73;;;1.17;;
18072;SDS011;9161;47.348;9.648;2022-11-20T10:39:01;4.57;;;1.20;;
18072;SDS011;9161;47.348;9.648;2022-11-20T10:43:52;2.30;;;1.20;;
18072;SDS011;9161;47.348;9.648;2022-11-20T10:48:44;2.47;;;1.00;;
18072;SDS011;9161;47.348;9.648;2022-11-20T10:58:41;4.40;;;1.93;;
18072;SDS011;9161;47.348;9.648;2022-11-20T11:03:36;3.90;;;1.50;;
18072;SDS011;9161;47.348;9.648;2022-11-20T11:08:20;33.30;;;11.17;;
18072;SDS011;9161;47.348;9.648;2022-11-20T11:13:04;6.67;;;3.17;;
18072;SDS011;9161;47.348;9.648;2022-11-20T11:17:48;3.00;;;1.40;;
18072;SDS011;9161;47.348;9.648;2022-11-20T11:22:34;5.60;;;2.17;;
18072;SDS011;9161;47.348;9.648;2022-11-20T11:27:26;2.90;;;1.30;;
18072;SDS011;9161;47.348;9.648;2022-11-20T11:32:11;0.93;;;0.60;;
18072;SDS011;9161;47.348;9.648;2022-11-20T11:36:56;1.13;;;0.50;;
18072;SDS011;9161;47.348;9.648;2022-11-20T11:41:42;0.70;;;0.57;;
18072;SDS011;9161;47.348;9.648;2022-11-20T11:46:28;2.00;;;0.50;;
18072;SDS011;9161;47.348;9.648;2022-11-20T11:51:19;1.83;;;1.13;;
18072;SDS011;9161;47.348;9.648;2022-11-20T11:56:05;1.80;;;1.07;;
18072;SDS011;9161;47.348;9.648;2022-11-20T12:00:56;1.40;;;0.70;;
18072;SDS011;9161;47.348;9.648;2022-11-20T12:05:46;2.27;;;1.00;;
18072;SDS011;9161;47.348;9.648;2022-11-20T12:10:38;2.70;;;0.60;;
18072;SDS011;9161;47.348;9.648;2022-11-20T12:15:29;0.30;;;0.30;;
18072;SDS011;9161;47.348;9.648;2022-11-20T12:20:16;1.17;;;0.50;;
18072;SDS011;9161;47.348;9.648;2022-11-20T12:25:01;2.53;;;0.70;;
18072;SDS011;9161;47.348;9.648;2022-11-20T12:29:51;2.30;;;0.50;;
18072;SDS011;9161;47.348;9.648;2022-11-20T12:34:47;1.13;;;0.60;;
18072;SDS011;9161;47.348;9.648;2022-11-20T12:39:41;1.73;;;0.80;;
18072;SDS011;9161;47.348;9.648;2022-11-20T12:49:53;2.40;;;1.00;;
18072;SDS011;9161;47.348;9.648;2022-11-20T12:54:49;1.70;;;1.07;;
18072;SDS011;9161;47.348;9.648;2022-11-20T13:00:01;2.10;;;1.00;;
18072;SDS011;9161;47.348;9.648;2022-11-20T13:04:58;4.23;;;1.43;;
18072;SDS011;9161;47.348;9.648;2022-11-20T13:09:55;4.13;;;1.50;;
18072;SDS011;9161;47.348;9.648;2022-11-20T13:14:40;2.93;;;1.70;;
18072;SDS011;9161;47.348;9.648;2022-11-20T13:19:29;3.17;;;1.60;;
18072;SDS011;9161;47.348;9.648;2022-11-20T13:24:21;2.80;;;1.40;;
18072;SDS011;9161;47.348;9.648;2022-11-20T13:29:11;1.57;;;1.40;;
18072;SDS011;9161;47.348;9.648;2022-11-20T13:33:59;2.15;;;1.20;;
18072;SDS011;9161;47.348;9.648;2022-11-20T13:38:46;1.83;;;1.30;;
18072;SDS011;9161;47.348;9.648;2022-11-20T13:43:34;2.55;;;1.00;;
18072;SDS011;9161;47.348;9.648;2022-11-20T13:48:24;1.10;;;0.70;;
18072;SDS011;9161;47.348;9.648;2022-11-20T13:53:14;2.55;;;1.27;;
18072;SDS011;9161;47.348;9.648;2022-11-20T13:58:17;1.83;;;1.20;;
18072;SDS011;9161;47.348;9.648;2022-11-20T14:03:20;3.33;;;1.35;;
18072;SDS011;9161;47.348;9.648;2022-11-20T14:08:31;1.25;;;0.90;;
18072;SDS011;9161;47.348;9.648;2022-11-20T14:13:20;1.17;;;1.08;;
18072;SDS011;9161;47.348;9.648;2022-11-20T14:18:11;0.73;;;0.73;;
18072;SDS011;9161;47.348;9.648;2022-11-20T14:22:58;1.70;;;1.08;;
18072;SDS011;9161;47.348;9.648;2022-11-20T14:27:45;2.60;;;1.10;;
18072;SDS011;9161;47.348;9.648;2022-11-20T14:32:35;2.17;;;1.00;;
18072;SDS011;9161;47.348;9.648;2022-11-20T14:37:21;2.05;;;1.02;;
18072;SDS011;9161;47.348;9.648;2022-11-20T14:42:15;2.10;;;1.10;;
18072;SDS011;9161;47.348;9.648;2022-11-20T14:47:00;2.35;;;0.98;;
18072;SDS011;9161;47.348;9.648;2022-11-20T14:51:58;1.90;;;1.15;;
18072;SDS011;9161;47.348;9.648;2022-11-20T14:56:53;2.20;;;0.93;;
18072;SDS011;9161;47.348;9.648;2022-11-20T15:01:40;1.47;;;1.00;;
18072;SDS011;9161;47.348;9.648;2022-11-20T15:06:48;4.57;;;0.90;;
18072;SDS011;9161;47.348;9.648;2022-11-20T15:11:34;1.80;;;0.90;;
18072;SDS011;9161;47.348;9.648;2022-11-20T15:16:19;1.60;;;0.87;;
18072;SDS011;9161;47.348;9.648;2022-11-20T15:21:10;1.27;;;0.83;;
18072;SDS011;9161;47.348;9.648;2022-11-20T15:25:56;2.30;;;1.10;;
18072;SDS011;9161;47.348;9.648;2022-11-20T15:30:41;3.27;;;1.00;;
18072;SDS011;9161;47.348;9.648;2022-11-20T15:35:26;2.83;;;1.27;;
18072;SDS011;9161;47.348;9.648;2022-11-20T15:40:13;11.80;;;3.90;;
18072;SDS011;9161;47.348;9.648;2022-11-20T15:44:58;12.53;;;4.53;;
18072;SDS011;9161;47.348;9.648;2022-11-20T15:49:43;11.67;;;4.20;;
18072;SDS011;9161;47.348;9.648;2022-11-20T15:54:28;9.07;;;3.57;;
18072;SDS011;9161;47.348;9.648;2022-11-20T15:59:20;7.70;;;3.40;;
18072;SDS011;9161;47.348;9.648;2022-11-20T16:04:07;8.80;;;2.60;;
18072;SDS011;9161;47.348;9.648;2022-11-20T16:08:53;7.77;;;3.17;;
18072;SDS011;9161;47.348;9.648;2022-11-20T16:13:39;5.07;;;2.70;;
18072;SDS011;9161;47.348;9.648;2022-11-20T16:18:43;5.43;;;2.70;;
18072;SDS011;9161;47.348;9.648;2022-11-20T16:23:29;7.43;;;3.60;;
18072;SDS011;9161;47.348;9.648;2022-11-20T16:28:14;6.30;;;3.40;;
18072;SDS011;9161;47.348;9.648;2022-11-20T16:33:00;6.63;;;3.20;;
18072;SDS011;9161;47.348;9.648;2022-11-20T16:37:47;7.97;;;3.03;;
18072;SDS011;9161;47.348;9.648;2022-11-20T16:42:33;5.93;;;3.23;;
18072;SDS011;9161;47.348;9.648;2022-11-20T16:47:18;6.07;;;3.27;;
18072;SDS011;9161;47.348;9.648;2022-11-20T16:52:03;10.47;;;3.53;;
18072;SDS011;9161;47.348;9.648;2022-11-20T16:56:53;10.77;;;3.97;;
18072;SDS011;9161;47.348;9.648;2022-11-20T17:01:38;9.93;;;4.10;;
18072;SDS011;9161;47.348;9.648;2022-11-20T17:06:24;7.20;;;3.80;;
18072;SDS011;9161;47.348;9.648;2022-11-20T17:11:11;11.63;;;4.97;;
18072;SDS011;9161;47.348;9.648;2022-11-20T17:16:02;11.93;;;5.40;;
18072;SDS011;9161;47.348;9.648;2022-11-20T17:20:50;6.60;;;4.20;;
18072;SDS011;9161;47.348;9.648;2022-11-20T17:25:36;7.80;;;4.30;;
18072;SDS011;9161;47.348;9.648;2022-11-20T17:30:23;8.00;;;4.17;;
18072;SDS011;9161;47.348;9.648;2022-11-20T17:35:11;8.20;;;4.10;;
18072;SDS011;9161;47.348;9.648;2022-11-20T17:39:57;10.37;;;5.90;;
18072;SDS011;9161;47.348;9.648;2022-11-20T17:44:42;12.70;;;6.20;;
18072;SDS011;9161;47.348;9.648;2022-11-20T17:49:27;10.30;;;5.63;;
18072;SDS011;9161;47.348;9.648;2022-11-20T17:54:14;8.77;;;4.33;;
18072;SDS011;9161;47.348;9.648;2022-11-20T17:59:02;6.43;;;3.57;;
18072;SDS011;9161;47.348;9.648;2022-11-20T18:03:48;6.57;;;2.93;;
18072;SDS011;9161;47.348;9.648;2022-11-20T18:08:33;5.93;;;3.27;;
18072;SDS011;9161;47.348;9.648;2022-11-20T18:13:19;5.27;;;2.60;;
18072;SDS011;9161;47.348;9.648;2022-11-20T18:18:28;5.13;;;1.97;;
18072;SDS011;9161;47.348;9.648;2022-11-20T18:23:14;5.57;;;2.33;;
18072;SDS011;9161;47.348;9.648;2022-11-20T18:27:59;3.87;;;2.47;;
18072;SDS011;9161;47.348;9.648;2022-11-20T18:32:46;3.73;;;2.13;;
18072;SDS011;9161;47.348;9.648;2022-11-20T18:37:41;4.07;;;2.00;;
18072;SDS011;9161;47.348;9.648;2022-11-20T18:42:26;6.47;;;3.37;;
18072;SDS011;9161;47.348;9.648;2022-11-20T18:47:29;5.77;;;3.00;;
18072;SDS011;9161;47.348;9.648;2022-11-20T18:52:23;6.43;;;2.97;;
18072;SDS011;9161;47.348;9.648;2022-11-20T18:57:10;7.43;;;3.40;;
18072;SDS011;9161;47.348;9.648;2022-11-20T19:01:56;11.97;;;4.87;;
18072;SDS011;9161;47.348;9.648;2022-11-20T19:06:41;12.83;;;4.57;;
18072;SDS011;9161;47.348;9.648;2022-11-20T19:11:29;9.43;;;3.77;;
18072;SDS011;9161;47.348;9.648;2022-11-20T19:16:15;8.20;;;3.53;;
18072;SDS011;9161;47.348;9.648;2022-11-20T19:21:05;8.17;;;3.87;;
18072;SDS011;9161;47.348;9.648;2022-11-20T19:25:52;8.17;;;4.27;;
18072;SDS011;9161;47.348;9.648;2022-11-20T19:30:45;8.40;;;4.47;;
18072;SDS011;9161;47.348;9.648;2022-11-20T19:35:29;8.27;;;4.57;;
18072;SDS011;9161;47.348;9.648;2022-11-20T19:40:14;12.17;;;4.80;;
18072;SDS011;9161;47.348;9.648;2022-11-20T19:44:59;9.87;;;4.83;;
18072;SDS011;9161;47.348;9.648;2022-11-20T19:49:49;11.90;;;6.90;;
18072;SDS011;9161;47.348;9.648;2022-11-20T19:54:35;15.67;;;9.17;;
18072;SDS011;9161;47.348;9.648;2022-11-20T19:59:20;18.17;;;10.50;;
18072;SDS011;9161;47.348;9.648;2022-11-20T20:04:07;16.20;;;8.90;;
18072;SDS011;9161;47.348;9.648;2022-11-20T20:08:57;15.70;;;7.40;;
18072;SDS011;9161;47.348;9.648;2022-11-20T20:13:45;12.90;;;6.33;;
18072;SDS011;9161;47.348;9.648;2022-11-20T20:18:30;13.83;;;7.17;;
18072;SDS011;9161;47.348;9.648;2022-11-20T20:23:17;13.80;;;6.50;;
18072;SDS011;9161;47.348;9.648;2022-11-20T20:28:06;14.20;;;7.27;;
18072;SDS011;9161;47.348;9.648;2022-11-20T20:32:51;12.03;;;6.83;;
18072;SDS011;9161;47.348;9.648;2022-11-20T20:37:37;12.97;;;6.17;;
18072;SDS011;9161;47.348;9.648;2022-11-20T20:42:22;10.90;;;5.90;;
18072;SDS011;9161;47.348;9.648;2022-11-20T20:47:09;10.60;;;5.57;;
18072;SDS011;9161;47.348;9.648;2022-11-20T20:51:55;10.10;;;5.30;;
18072;SDS011;9161;47.348;9.648;2022-11-20T20:56:39;13.13;;;5.20;;
18072;SDS011;9161;47.348;9.648;2022-11-20T21:01:25;8.70;;;4.47;;
18072;SDS011;9161;47.348;9.648;2022-11-20T21:06:14;11.97;;;4.93;;
18072;SDS011;9161;47.348;9.648;2022-11-20T21:11:00;7.97;;;3.90;;
18072;SDS011;9161;47.348;9.648;2022-11-20T21:15:45;5.50;;;2.80;;
18072;SDS011;9161;47.348;9.648;2022-11-20T21:20:29;6.03;;;2.30;;
18072;SDS011;9161;47.348;9.648;2022-11-20T21:25:36;5.23;;;3.27;;
18072;SDS011;9161;47.348;9.648;2022-11-20T21:30:20;5.87;;;3.60;;
18072;SDS011;9161;47.348;9.648;2022-11-20T21:35:04;3.93;;;2.00;;
18072;SDS011;9161;47.348;9.648;2022-11-20T21:39:50;1.80;;;0.87;;
18072;SDS011;9161;47.348;9.648;2022-11-20T21:44:36;1.77;;;0.70;;
18072;SDS011;9161;47.348;9.648;2022-11-20T21:49:20;2.57;;;0.80;;
18072;SDS011;9161;47.348;9.648;2022-11-20T21:54:06;1.47;;;0.90;;
18072;SDS011;9161;47.348;9.648;2022-11-20T21:58:52;1.70;;;0.97;;
18072;SDS011;9161;47.348;9.648;2022-11-20T22:03:38;3.67;;;0.97;;
18072;SDS011;9161;47.348;9.648;2022-11-20T22:08:22;1.77;;;1.00;;
18072;SDS011;9161;47.348;9.648;2022-11-20T22:13:06;1.20;;;1.00;;
18072;SDS011;9161;47.348;9.648;2022-11-20T22:18:06;3.00;;;1.43;;
18072;SDS011;9161;47.348;9.648;2022-11-20T22:22:59;1.83;;;1.03;;
18072;SDS011;9161;47.348;9.648;2022-11-20T22:27:44;2.33;;;0.70;;
18072;SDS011;9161;47.348;9.648;2022-11-20T22:32:28;2.60;;;1.13;;
18072;SDS011;9161;47.348;9.648;2022-11-20T22:37:11;2.00;;;0.70;;
18072;SDS011;9161;47.348;9.648;2022-11-20T22:41:56;1.00;;;0.70;;
18072;SDS011;9161;47.348;9.648;2022-11-20T22:46:42;1.20;;;0.70;;
18072;SDS011;9161;47.348;9.648;2022-11-20T22:51:25;1.00;;;0.63;;
18072;SDS011;9161;47.348;9.648;2022-11-20T22:56:10;1.60;;;1.10;;
18072;SDS011;9161;47.348;9.648;2022-11-20T23:00:57;2.67;;;1.20;;
18072;SDS011;9161;47.348;9.648;2022-11-20T23:05:48;1.37;;;1.07;;
18072;SDS011;9161;47.348;9.648;2022-11-20T23:10:31;1.47;;;0.70;;
18072;SDS011;9161;47.348;9.648;2022-11-20T23:15:15;3.10;;;0.70;;
18072;SDS011;9161;47.348;9.648;2022-11-20T23:20:00;0.50;;;0.27;;
18072;SDS011;9161;47.348;9.648;2022-11-20T23:24:43;0.90;;;0.50;;
18072;SDS011;9161;47.348;9.648;2022-11-20T23:29:27;1.63;;;0.50;;
18072;SDS011;9161;47.348;9.648;2022-11-20T23:34:11;0.90;;;0.50;;
18072;SDS011;9161;47.348;9.648;2022-11-20T23:38:55;1.13;;;0.30;;
18072;SDS011;9161;47.348;9.648;2022-11-20T23:43:39;1.90;;;0.50;;
18072;SDS011;9161;47.348;9.648;2022-11-20T23:48:25;0.40;;;0.40;;
18072;SDS011;9161;47.348;9.648;2022-11-20T23:53:09;0.70;;;0.30;;
18072;SDS011;9161;47.348;9.648;2022-11-20T23:57:56;0.23;;;0.20;;
